sensor_id;sensor_type;location;lat;lon;timestamp;pressure;altitude;pressure_sealevel;temperature;humidity
13612;BME280;6877;51.436;6.774;2023-06-26T00:02:06;100762.16;;;22.74;59.12
13612;BME280;6877;51.436;6.774;2023-06-26T00:04:32;100764.91;;;22.72;59.57
13612;BME280;6877;51.436;6.774;2023-06-26T00:06:59;100760.53;;;22.71;59.85
13612;BME280;6877;51.436;6.774;2023-06-26T00:09:25;100755.41;;;22.68;59.68
13612;BME280;6877;51.436;6.774;2023-06-26T00:11:51;100749.53;;;22.63;59.73
13612;BME280;6877;51.436;6.774;2023-06-26T00:14:23;100763.06;;;22.60;60.09
13612;BME280;6877;51.436;6.774;2023-06-26T00:16:54;100763.50;;;22.54;60.27
13612;BME280;6877;51.436;6.774;2023-06-26T00:19:26;100759.34;;;22.50;60.86
13612;BME280;6877;51.436;6.774;2023-06-26T00:21:52;100755.41;;;22.42;60.88
13612;BME280;6877;51.436;6.774;2023-06-26T00:24:24;100761.13;;;22.36;61.44
13612;BME280;6877;51.436;6.774;2023-06-26T00:26:50;100757.72;;;22.34;61.50
13612;BME280;6877;51.436;6.774;2023-06-26T00:29:22;100759.44;;;22.35;62.17
13612;BME280;6877;51.436;6.774;2023-06-26T00:31:48;100754.31;;;22.32;61.61
13612;BME280;6877;51.436;6.774;2023-06-26T00:34:20;100745.56;;;22.30;62.03
13612;BME280;6877;51.436;6.774;2023-06-26T00:36:46;100747.66;;;22.25;62.04
13612;BME280;6877;51.436;6.774;2023-06-26T00:39:17;100748.84;;;22.21;62.32
13612;BME280;6877;51.436;6.774;2023-06-26T00:41:49;100743.03;;;22.14;62.35
13612;BME280;6877;51.436;6.774;2023-06-26T00:44:16;100747.81;;;22.09;63.09
13612;BME280;6877;51.436;6.774;2023-06-26T00:46:42;100740.88;;;22.07;63.18
13612;BME280;6877;51.436;6.774;2023-06-26T00:49:14;100746.63;;;22.01;63.64
13612;BME280;6877;51.436;6.774;2023-06-26T00:51:46;100746.84;;;21.97;64.08
13612;BME280;6877;51.436;6.774;2023-06-26T00:54:17;100751.59;;;21.92;64.01
13612;BME280;6877;51.436;6.774;2023-06-26T00:56:51;100749.16;;;21.89;64.23
13612;BME280;6877;51.436;6.774;2023-06-26T00:59:17;100746.69;;;21.86;64.76
13612;BME280;6877;51.436;6.774;2023-06-26T01:01:44;100741.34;;;21.86;64.98
13612;BME280;6877;51.436;6.774;2023-06-26T01:04:10;100738.13;;;21.81;65.10
13612;BME280;6877;51.436;6.774;2023-06-26T01:06:47;100730.53;;;21.75;65.55
13612;BME280;6877;51.436;6.774;2023-06-26T01:09:22;100735.13;;;21.73;65.48
13612;BME280;6877;51.436;6.774;2023-06-26T01:11:54;100729.22;;;21.68;65.38
13612;BME280;6877;51.436;6.774;2023-06-26T01:14:26;100724.88;;;21.67;65.57
13612;BME280;6877;51.436;6.774;2023-06-26T01:16:58;100729.63;;;21.62;65.73
13612;BME280;6877;51.436;6.774;2023-06-26T01:19:31;100723.66;;;21.58;65.94
13612;BME280;6877;51.436;6.774;2023-06-26T01:22:04;100725.75;;;21.53;66.11
13612;BME280;6877;51.436;6.774;2023-06-26T01:24:38;100719.78;;;21.49;66.00
13612;BME280;6877;51.436;6.774;2023-06-26T01:27:12;100724.38;;;21.47;65.74
13612;BME280;6877;51.436;6.774;2023-06-26T01:29:44;100725.50;;;21.43;66.06
13612;BME280;6877;51.436;6.774;2023-06-26T01:32:11;100721.31;;;21.39;66.31
13612;BME280;6877;51.436;6.774;2023-06-26T01:34:38;100720.47;;;21.39;66.18
13612;BME280;6877;51.436;6.774;2023-06-26T01:37:05;100718.06;;;21.34;66.25
13612;BME280;6877;51.436;6.774;2023-06-26T01:39:31;100713.81;;;21.32;66.62
13612;BME280;6877;51.436;6.774;2023-06-26T01:42:03;100714.84;;;21.29;66.25
13612;BME280;6877;51.436;6.774;2023-06-26T01:44:37;100717.59;;;21.27;66.36
13612;BME280;6877;51.436;6.774;2023-06-26T01:47:16;100710.56;;;21.26;66.81
13612;BME280;6877;51.436;6.774;2023-06-26T01:49:56;100714.28;;;21.24;66.42
13612;BME280;6877;51.436;6.774;2023-06-26T01:52:35;100715.25;;;21.23;67.14
13612;BME280;6877;51.436;6.774;2023-06-26T01:57:43;100714.66;;;21.18;66.48
13612;BME280;6877;51.436;6.774;2023-06-26T02:00:17;100719.25;;;21.16;66.35
13612;BME280;6877;51.436;6.774;2023-06-26T02:02:51;100720.50;;;21.10;66.59
13612;BME280;6877;51.436;6.774;2023-06-26T02:05:18;100729.72;;;21.04;67.33
13612;BME280;6877;51.436;6.774;2023-06-26T02:07:49;100730.94;;;20.99;67.32
13612;BME280;6877;51.436;6.774;2023-06-26T02:10:17;100729.25;;;20.98;67.82
13612;BME280;6877;51.436;6.774;2023-06-26T02:12:44;100732.94;;;20.95;67.33
13612;BME280;6877;51.436;6.774;2023-06-26T02:15:10;100730.28;;;20.95;67.02
13612;BME280;6877;51.436;6.774;2023-06-26T02:17:36;100726.97;;;20.92;66.84
13612;BME280;6877;51.436;6.774;2023-06-26T02:20:03;100731.50;;;20.90;66.77
13612;BME280;6877;51.436;6.774;2023-06-26T02:22:35;100733.69;;;20.83;66.99
13612;BME280;6877;51.436;6.774;2023-06-26T02:25:07;100739.88;;;20.83;67.13
13612;BME280;6877;51.436;6.774;2023-06-26T02:27:39;100730.84;;;20.86;67.43
13612;BME280;6877;51.436;6.774;2023-06-26T02:30:10;100738.94;;;20.85;67.19
13612;BME280;6877;51.436;6.774;2023-06-26T02:32:37;100738.16;;;20.82;67.52
13612;BME280;6877;51.436;6.774;2023-06-26T02:35:08;100740.94;;;20.81;67.54
13612;BME280;6877;51.436;6.774;2023-06-26T02:37:40;100741.59;;;20.85;67.37
13612;BME280;6877;51.436;6.774;2023-06-26T02:40:11;100743.41;;;20.84;67.34
13612;BME280;6877;51.436;6.774;2023-06-26T02:42:38;100750.50;;;20.83;67.15
13612;BME280;6877;51.436;6.774;2023-06-26T02:45:04;100754.97;;;20.83;67.24
13612;BME280;6877;51.436;6.774;2023-06-26T02:47:36;100751.56;;;20.81;67.57
13612;BME280;6877;51.436;6.774;2023-06-26T02:50:10;100760.28;;;20.83;67.60
13612;BME280;6877;51.436;6.774;2023-06-26T02:52:41;100753.94;;;20.86;67.65
13612;BME280;6877;51.436;6.774;2023-06-26T02:55:08;100748.53;;;20.87;67.58
13612;BME280;6877;51.436;6.774;2023-06-26T02:57:35;100763.63;;;20.87;67.44
13612;BME280;6877;51.436;6.774;2023-06-26T03:00:01;100771.41;;;20.90;67.48
13612;BME280;6877;51.436;6.774;2023-06-26T03:02:28;100779.31;;;20.91;67.51
13612;BME280;6877;51.436;6.774;2023-06-26T03:04:54;100771.22;;;20.93;67.28
13612;BME280;6877;51.436;6.774;2023-06-26T03:07:20;100781.41;;;21.00;67.14
13612;BME280;6877;51.436;6.774;2023-06-26T03:09:47;100781.59;;;21.12;66.73
13612;BME280;6877;51.436;6.774;2023-06-26T03:12:14;100781.78;;;21.23;67.04
13612;BME280;6877;51.436;6.774;2023-06-26T03:14:40;100787.75;;;21.26;66.66
13612;BME280;6877;51.436;6.774;2023-06-26T03:17:06;100787.47;;;21.31;66.72
13612;BME280;6877;51.436;6.774;2023-06-26T03:19:38;100787.28;;;21.34;66.95
13612;BME280;6877;51.436;6.774;2023-06-26T03:22:05;100782.66;;;21.38;66.25
13612;BME280;6877;51.436;6.774;2023-06-26T03:24:36;100792.25;;;21.40;66.26
13612;BME280;6877;51.436;6.774;2023-06-26T03:27:07;100795.66;;;21.42;66.19
13612;BME280;6877;51.436;6.774;2023-06-26T03:29:40;100801.84;;;21.43;66.34
13612;BME280;6877;51.436;6.774;2023-06-26T03:32:12;100803.00;;;21.39;66.25
13612;BME280;6877;51.436;6.774;2023-06-26T03:34:43;100799.00;;;21.32;66.76
13612;BME280;6877;51.436;6.774;2023-06-26T03:37:15;100802.78;;;21.27;67.10
13612;BME280;6877;51.436;6.774;2023-06-26T03:39:41;100798.53;;;21.25;67.47
13612;BME280;6877;51.436;6.774;2023-06-26T03:42:12;100804.03;;;21.22;67.88
13612;BME280;6877;51.436;6.774;2023-06-26T03:44:39;100797.81;;;21.21;67.80
13612;BME280;6877;51.436;6.774;2023-06-26T03:47:05;100805.94;;;21.20;67.58
13612;BME280;6877;51.436;6.774;2023-06-26T03:49:32;100807.81;;;21.18;67.34
13612;BME280;6877;51.436;6.774;2023-06-26T03:52:03;100811.50;;;21.15;66.99
13612;BME280;6877;51.436;6.774;2023-06-26T03:54:35;100810.66;;;21.15;66.66
13612;BME280;6877;51.436;6.774;2023-06-26T03:57:01;100814.19;;;21.15;66.72
13612;BME280;6877;51.436;6.774;2023-06-26T03:59:33;100822.47;;;21.11;66.65
13612;BME280;6877;51.436;6.774;2023-06-26T04:02:04;100828.81;;;21.08;66.35
13612;BME280;6877;51.436;6.774;2023-06-26T04:04:31;100827.97;;;21.08;66.21
13612;BME280;6877;51.436;6.774;2023-06-26T04:07:02;100833.69;;;21.16;65.42
13612;BME280;6877;51.436;6.774;2023-06-26T04:09:34;100832.63;;;21.18;65.40
13612;BME280;6877;51.436;6.774;2023-06-26T04:12:05;100836.06;;;21.20;65.15
13612;BME280;6877;51.436;6.774;2023-06-26T04:14:37;100839.38;;;21.24;64.48
13612;BME280;6877;51.436;6.774;2023-06-26T04:17:08;100842.03;;;21.24;64.53
13612;BME280;6877;51.436;6.774;2023-06-26T04:19:35;100841.78;;;21.28;64.72
13612;BME280;6877;51.436;6.774;2023-06-26T04:22:02;100839.84;;;21.30;64.26
13612;BME280;6877;51.436;6.774;2023-06-26T04:24:29;100849.56;;;21.32;64.31
13612;BME280;6877;51.436;6.774;2023-06-26T04:26:55;100845.69;;;21.37;64.17
13612;BME280;6877;51.436;6.774;2023-06-26T04:29:30;100847.88;;;21.45;63.82
13612;BME280;6877;51.436;6.774;2023-06-26T04:32:01;100841.31;;;21.50;63.70
13612;BME280;6877;51.436;6.774;2023-06-26T04:34:33;100854.44;;;21.54;63.69
13612;BME280;6877;51.436;6.774;2023-06-26T04:37:01;100847.38;;;21.52;63.94
13612;BME280;6877;51.436;6.774;2023-06-26T04:39:36;100852.81;;;21.51;64.16
13612;BME280;6877;51.436;6.774;2023-06-26T04:42:04;100850.06;;;21.52;64.17
13612;BME280;6877;51.436;6.774;2023-06-26T04:44:31;100853.47;;;21.55;64.07
13612;BME280;6877;51.436;6.774;2023-06-26T04:46:58;100853.94;;;21.61;64.52
13612;BME280;6877;51.436;6.774;2023-06-26T04:49:30;100855.19;;;21.70;64.45
13612;BME280;6877;51.436;6.774;2023-06-26T04:52:01;100857.53;;;21.74;64.49
13612;BME280;6877;51.436;6.774;2023-06-26T04:54:34;100853.94;;;21.75;65.04
13612;BME280;6877;51.436;6.774;2023-06-26T04:57:00;100851.94;;;21.79;64.68
13612;BME280;6877;51.436;6.774;2023-06-26T04:59:32;100850.47;;;21.88;64.90
13612;BME280;6877;51.436;6.774;2023-06-26T05:01:58;100856.28;;;21.94;64.85
13612;BME280;6877;51.436;6.774;2023-06-26T05:04:24;100867.41;;;22.01;64.75
13612;BME280;6877;51.436;6.774;2023-06-26T05:06:51;100865.19;;;22.08;64.97
13612;BME280;6877;51.436;6.774;2023-06-26T05:09:22;100873.56;;;22.16;64.77
13612;BME280;6877;51.436;6.774;2023-06-26T05:11:54;100879.25;;;22.24;64.46
13612;BME280;6877;51.436;6.774;2023-06-26T05:14:20;100878.13;;;22.14;64.28
13612;BME280;6877;51.436;6.774;2023-06-26T05:16:51;100877.66;;;22.07;64.50
13612;BME280;6877;51.436;6.774;2023-06-26T05:19:18;100882.44;;;22.02;64.74
13612;BME280;6877;51.436;6.774;2023-06-26T05:21:50;100892.63;;;21.95;64.68
13612;BME280;6877;51.436;6.774;2023-06-26T05:24:17;100894.25;;;21.98;64.52
13612;BME280;6877;51.436;6.774;2023-06-26T05:26:45;100896.72;;;22.01;64.61
13612;BME280;6877;51.436;6.774;2023-06-26T05:29:12;100906.97;;;22.07;64.40
13612;BME280;6877;51.436;6.774;2023-06-26T05:31:44;100908.03;;;22.05;64.25
13612;BME280;6877;51.436;6.774;2023-06-26T05:34:17;100910.69;;;22.05;64.40
13612;BME280;6877;51.436;6.774;2023-06-26T05:36:51;100905.06;;;22.09;63.80
13612;BME280;6877;51.436;6.774;2023-06-26T05:39:18;100912.78;;;22.14;63.89
13612;BME280;6877;51.436;6.774;2023-06-26T05:41:50;100907.72;;;22.24;63.32
13612;BME280;6877;51.436;6.774;2023-06-26T05:44:16;100910.66;;;22.33;62.77
13612;BME280;6877;51.436;6.774;2023-06-26T05:46:43;100906.28;;;22.32;62.38
13612;BME280;6877;51.436;6.774;2023-06-26T05:49:10;100909.34;;;22.26;62.79
13612;BME280;6877;51.436;6.774;2023-06-26T05:51:36;100927.34;;;22.23;62.59
13612;BME280;6877;51.436;6.774;2023-06-26T05:54:03;100914.97;;;22.21;62.75
13612;BME280;6877;51.436;6.774;2023-06-26T05:56:35;100913.91;;;22.10;63.07
13612;BME280;6877;51.436;6.774;2023-06-26T05:59:07;100918.56;;;22.06;63.58
13612;BME280;6877;51.436;6.774;2023-06-26T06:01:39;100923.44;;;21.99;64.07
13612;BME280;6877;51.436;6.774;2023-06-26T06:04:06;100921.34;;;22.05;64.05
13612;BME280;6877;51.436;6.774;2023-06-26T06:06:32;100926.78;;;22.17;63.65
13612;BME280;6877;51.436;6.774;2023-06-26T06:08:58;100922.16;;;22.34;63.27
13612;BME280;6877;51.436;6.774;2023-06-26T06:11:25;100921.81;;;22.53;62.61
13612;BME280;6877;51.436;6.774;2023-06-26T06:13:51;100931.72;;;22.51;62.69
13612;BME280;6877;51.436;6.774;2023-06-26T06:16:18;100932.56;;;22.24;63.66
13612;BME280;6877;51.436;6.774;2023-06-26T06:18:49;100948.38;;;21.98;64.93
13612;BME280;6877;51.436;6.774;2023-06-26T06:21:21;100950.03;;;21.72;65.85
13612;BME280;6877;51.436;6.774;2023-06-26T06:23:47;100949.81;;;21.61;66.71
13612;BME280;6877;51.436;6.774;2023-06-26T06:26:18;100950.84;;;21.59;67.47
13612;BME280;6877;51.436;6.774;2023-06-26T06:28:50;100961.34;;;21.76;66.92
13612;BME280;6877;51.436;6.774;2023-06-26T06:31:16;100961.91;;;21.95;65.79
13612;BME280;6877;51.436;6.774;2023-06-26T06:33:48;100962.75;;;22.10;65.60
13612;BME280;6877;51.436;6.774;2023-06-26T06:36:14;100958.66;;;22.05;65.59
13612;BME280;6877;51.436;6.774;2023-06-26T06:38:45;100958.00;;;22.01;65.69
13612;BME280;6877;51.436;6.774;2023-06-26T06:41:17;100971.78;;;22.08;66.32
13612;BME280;6877;51.436;6.774;2023-06-26T06:43:48;100981.13;;;22.29;66.01
13612;BME280;6877;51.436;6.774;2023-06-26T06:46:15;100981.59;;;22.63;64.84
13612;BME280;6877;51.436;6.774;2023-06-26T06:48:41;100987.97;;;23.02;63.28
13612;BME280;6877;51.436;6.774;2023-06-26T06:51:13;100982.91;;;23.24;62.48
13612;BME280;6877;51.436;6.774;2023-06-26T06:53:44;100991.34;;;23.44;61.70
13612;BME280;6877;51.436;6.774;2023-06-26T06:56:16;100986.66;;;23.60;61.18
13612;BME280;6877;51.436;6.774;2023-06-26T06:58:47;100993.63;;;23.75;60.19
13612;BME280;6877;51.436;6.774;2023-06-26T07:01:19;101000.22;;;23.57;60.60
13612;BME280;6877;51.436;6.774;2023-06-26T07:03:50;101011.75;;;23.45;61.03
13612;BME280;6877;51.436;6.774;2023-06-26T07:06:21;100998.94;;;23.37;60.97
13612;BME280;6877;51.436;6.774;2023-06-26T07:08:53;101007.63;;;23.13;61.68
13612;BME280;6877;51.436;6.774;2023-06-26T07:11:24;101005.13;;;22.98;62.66
13612;BME280;6877;51.436;6.774;2023-06-26T07:13:50;101005.78;;;22.74;63.59
13612;BME280;6877;51.436;6.774;2023-06-26T07:16:17;101007.38;;;22.77;63.23
13612;BME280;6877;51.436;6.774;2023-06-26T07:18:49;101005.81;;;22.87;62.71
13612;BME280;6877;51.436;6.774;2023-06-26T07:21:21;101001.97;;;23.05;62.73
13612;BME280;6877;51.436;6.774;2023-06-26T07:23:48;100999.13;;;23.21;62.26
13612;BME280;6877;51.436;6.774;2023-06-26T07:26:19;101005.56;;;23.57;60.88
13612;BME280;6877;51.436;6.774;2023-06-26T07:28:53;101004.34;;;23.75;60.05
13612;BME280;6877;51.436;6.774;2023-06-26T07:31:26;101006.25;;;23.73;60.23
13612;BME280;6877;51.436;6.774;2023-06-26T07:33:57;101005.72;;;23.81;60.31
13612;BME280;6877;51.436;6.774;2023-06-26T07:36:29;101016.28;;;23.95;59.63
13612;BME280;6877;51.436;6.774;2023-06-26T07:39:00;101016.38;;;24.19;59.10
13612;BME280;6877;51.436;6.774;2023-06-26T07:41:26;101014.91;;;24.02;59.63
13612;BME280;6877;51.436;6.774;2023-06-26T07:43:55;101025.47;;;24.04;59.66
13612;BME280;6877;51.436;6.774;2023-06-26T07:46:26;101017.34;;;23.80;60.02
13612;BME280;6877;51.436;6.774;2023-06-26T07:48:53;101026.53;;;24.01;59.47
13612;BME280;6877;51.436;6.774;2023-06-26T07:51:20;101024.72;;;24.02;59.43
13612;BME280;6877;51.436;6.774;2023-06-26T07:53:52;101030.78;;;24.42;58.78
13612;BME280;6877;51.436;6.774;2023-06-26T07:56:18;101019.66;;;24.96;56.83
13612;BME280;6877;51.436;6.774;2023-06-26T07:58:45;101030.84;;;25.50;54.79
13612;BME280;6877;51.436;6.774;2023-06-26T08:01:16;101046.84;;;25.16;55.04
13612;BME280;6877;51.436;6.774;2023-06-26T08:03:48;101040.16;;;25.09;55.79
13612;BME280;6877;51.436;6.774;2023-06-26T08:06:19;101048.00;;;25.36;54.79
13612;BME280;6877;51.436;6.774;2023-06-26T08:08:51;101047.16;;;25.47;54.45
13612;BME280;6877;51.436;6.774;2023-06-26T08:11:22;101052.94;;;25.64;53.55
13612;BME280;6877;51.436;6.774;2023-06-26T08:13:53;101043.88;;;25.43;53.62
13612;BME280;6877;51.436;6.774;2023-06-26T08:16:25;101060.00;;;25.54;53.85
13612;BME280;6877;51.436;6.774;2023-06-26T08:18:57;101076.31;;;27.20;48.55
13612;BME280;6877;51.436;6.774;2023-06-26T08:21:28;101067.56;;;26.95;48.70
13612;BME280;6877;51.436;6.774;2023-06-26T08:24:00;101069.81;;;26.79;48.80
13612;BME280;6877;51.436;6.774;2023-06-26T08:26:31;101070.47;;;28.10;46.20
13612;BME280;6877;51.436;6.774;2023-06-26T08:29:03;101077.03;;;27.75;45.53
13612;BME280;6877;51.436;6.774;2023-06-26T08:31:40;101074.00;;;26.72;48.63
13612;BME280;6877;51.436;6.774;2023-06-26T08:34:07;101081.03;;;27.60;46.57
13612;BME280;6877;51.436;6.774;2023-06-26T08:36:38;101077.25;;;27.62;46.63
13612;BME280;6877;51.436;6.774;2023-06-26T08:39:10;101093.78;;;29.21;42.90
13612;BME280;6877;51.436;6.774;2023-06-26T08:41:36;101101.44;;;31.49;36.62
13612;BME280;6877;51.436;6.774;2023-06-26T08:44:08;101100.19;;;32.05;35.78
13612;BME280;6877;51.436;6.774;2023-06-26T08:46:40;101101.69;;;33.35;33.70
13612;BME280;6877;51.436;6.774;2023-06-26T08:49:17;101105.06;;;31.94;35.22
13612;BME280;6877;51.436;6.774;2023-06-26T08:51:59;101095.78;;;28.28;42.37
13612;BME280;6877;51.436;6.774;2023-06-26T08:54:32;101102.22;;;27.21;45.19
13612;BME280;6877;51.436;6.774;2023-06-26T08:57:01;101098.22;;;28.81;42.52
13612;BME280;6877;51.436;6.774;2023-06-26T08:59:34;101103.50;;;31.73;36.33
13612;BME280;6877;51.436;6.774;2023-06-26T09:02:00;101126.09;;;34.25;31.50
13612;BME280;6877;51.436;6.774;2023-06-26T09:04:32;101114.09;;;32.71;33.06
13612;BME280;6877;51.436;6.774;2023-06-26T09:06:59;101118.09;;;31.98;34.77
13612;BME280;6877;51.436;6.774;2023-06-26T09:09:30;101122.03;;;32.72;33.21
13612;BME280;6877;51.436;6.774;2023-06-26T09:12:02;101118.31;;;33.98;31.16
13612;BME280;6877;51.436;6.774;2023-06-26T09:14:29;101122.69;;;35.10;29.37
13612;BME280;6877;51.436;6.774;2023-06-26T09:17:01;101118.94;;;35.80;27.75
13612;BME280;6877;51.436;6.774;2023-06-26T09:19:28;101120.88;;;36.39;27.19
13612;BME280;6877;51.436;6.774;2023-06-26T09:21:59;101121.97;;;37.96;24.77
13612;BME280;6877;51.436;6.774;2023-06-26T09:24:31;101124.31;;;38.76;23.38
13612;BME280;6877;51.436;6.774;2023-06-26T09:27:03;101128.38;;;38.45;24.23
13612;BME280;6877;51.436;6.774;2023-06-26T09:29:35;101126.00;;;36.78;25.70
13612;BME280;6877;51.436;6.774;2023-06-26T09:32:09;101128.94;;;36.77;26.08
13612;BME280;6877;51.436;6.774;2023-06-26T09:34:42;101127.59;;;37.02;25.15
13612;BME280;6877;51.436;6.774;2023-06-26T09:37:13;101127.50;;;35.54;27.42
13612;BME280;6877;51.436;6.774;2023-06-26T09:39:45;101128.97;;;35.80;26.86
13612;BME280;6877;51.436;6.774;2023-06-26T09:42:15;101132.75;;;37.83;24.17
13612;BME280;6877;51.436;6.774;2023-06-26T09:44:47;101128.38;;;36.37;25.55
13612;BME280;6877;51.436;6.774;2023-06-26T09:47:19;101124.09;;;33.37;29.07
13612;BME280;6877;51.436;6.774;2023-06-26T09:49:50;101130.69;;;33.27;29.60
13612;BME280;6877;51.436;6.774;2023-06-26T09:52:26;101128.31;;;35.78;26.55
13612;BME280;6877;51.436;6.774;2023-06-26T09:55:08;101128.03;;;37.06;24.68
13612;BME280;6877;51.436;6.774;2023-06-26T09:57:40;101141.66;;;38.55;23.02
13612;BME280;6877;51.436;6.774;2023-06-26T10:00:08;101151.06;;;38.11;22.59
13612;BME280;6877;51.436;6.774;2023-06-26T10:02:35;101160.69;;;37.57;23.14
13612;BME280;6877;51.436;6.774;2023-06-26T10:05:02;101149.31;;;38.31;22.47
13612;BME280;6877;51.436;6.774;2023-06-26T10:07:35;101150.59;;;38.35;22.42
13612;BME280;6877;51.436;6.774;2023-06-26T10:10:07;101144.16;;;36.86;24.20
13612;BME280;6877;51.436;6.774;2023-06-26T10:12:39;101140.78;;;35.03;26.32
13612;BME280;6877;51.436;6.774;2023-06-26T10:15:11;101146.66;;;35.38;26.04
13612;BME280;6877;51.436;6.774;2023-06-26T10:17:46;101147.38;;;36.30;24.94
13612;BME280;6877;51.436;6.774;2023-06-26T10:20:18;101147.38;;;36.75;23.78
13612;BME280;6877;51.436;6.774;2023-06-26T10:22:46;101153.41;;;37.21;22.71
13612;BME280;6877;51.436;6.774;2023-06-26T10:25:18;101152.50;;;37.14;22.89
13612;BME280;6877;51.436;6.774;2023-06-26T10:27:55;101141.19;;;37.17;22.67
13612;BME280;6877;51.436;6.774;2023-06-26T10:30:30;101157.91;;;37.72;22.77
13612;BME280;6877;51.436;6.774;2023-06-26T10:32:59;101168.03;;;37.99;22.31
13612;BME280;6877;51.436;6.774;2023-06-26T10:35:31;101169.06;;;37.77;22.64
13612;BME280;6877;51.436;6.774;2023-06-26T10:38:02;101169.03;;;37.13;23.27
13612;BME280;6877;51.436;6.774;2023-06-26T10:40:45;101156.19;;;33.50;27.67
13612;BME280;6877;51.436;6.774;2023-06-26T10:43:17;101145.50;;;30.68;32.14
13612;BME280;6877;51.436;6.774;2023-06-26T10:45:49;101146.84;;;29.59;33.02
13612;BME280;6877;51.436;6.774;2023-06-26T10:48:21;101153.28;;;31.27;30.09
13612;BME280;6877;51.436;6.774;2023-06-26T10:50:53;101153.91;;;33.29;27.77
13612;BME280;6877;51.436;6.774;2023-06-26T10:53:25;101171.53;;;34.48;26.29
13612;BME280;6877;51.436;6.774;2023-06-26T10:56:00;101169.19;;;33.30;26.78
13612;BME280;6877;51.436;6.774;2023-06-26T11:03:38;101183.44;;;30.30;30.44
13612;BME280;6877;51.436;6.774;2023-06-26T11:09:00;101176.25;;;29.82;32.02
13612;BME280;6877;51.436;6.774;2023-06-26T11:14:26;101188.00;;;31.85;27.88
13612;BME280;6877;51.436;6.774;2023-06-26T11:17:01;101173.56;;;31.94;27.02
13612;BME280;6877;51.436;6.774;2023-06-26T11:19:28;101190.38;;;32.50;26.18
13612;BME280;6877;51.436;6.774;2023-06-26T11:22:02;101184.28;;;32.90;26.18
13612;BME280;6877;51.436;6.774;2023-06-26T11:24:34;101189.69;;;32.48;26.95
13612;BME280;6877;51.436;6.774;2023-06-26T11:27:06;101188.84;;;30.10;30.79
13612;BME280;6877;51.436;6.774;2023-06-26T11:29:37;101204.34;;;30.28;30.67
13612;BME280;6877;51.436;6.774;2023-06-26T11:32:09;101198.81;;;30.19;29.94
13612;BME280;6877;51.436;6.774;2023-06-26T11:34:40;101199.38;;;28.95;31.60
13612;BME280;6877;51.436;6.774;2023-06-26T11:37:17;101202.97;;;29.75;29.90
13612;BME280;6877;51.436;6.774;2023-06-26T11:39:48;101190.59;;;29.72;29.70
13612;BME280;6877;51.436;6.774;2023-06-26T11:42:20;101201.56;;;29.01;29.30
13612;BME280;6877;51.436;6.774;2023-06-26T11:44:47;101201.13;;;28.45;29.75
13612;BME280;6877;51.436;6.774;2023-06-26T11:47:18;101208.00;;;27.95;30.05
13612;BME280;6877;51.436;6.774;2023-06-26T11:49:50;101201.44;;;27.88;29.65
13612;BME280;6877;51.436;6.774;2023-06-26T11:52:21;101193.06;;;28.03;30.21
13612;BME280;6877;51.436;6.774;2023-06-26T11:54:54;101209.91;;;28.26;30.63
13612;BME280;6877;51.436;6.774;2023-06-26T11:57:25;101215.25;;;28.16;31.65
13612;BME280;6877;51.436;6.774;2023-06-26T11:59:57;101221.44;;;27.95;32.01
13612;BME280;6877;51.436;6.774;2023-06-26T12:02:23;101227.72;;;27.53;32.23
13612;BME280;6877;51.436;6.774;2023-06-26T12:04:55;101213.38;;;26.86;31.92
13612;BME280;6877;51.436;6.774;2023-06-26T12:07:26;101205.25;;;26.30;32.66
13612;BME280;6877;51.436;6.774;2023-06-26T12:09:58;101216.66;;;26.78;31.68
13612;BME280;6877;51.436;6.774;2023-06-26T12:12:30;101210.31;;;26.91;30.66
13612;BME280;6877;51.436;6.774;2023-06-26T12:15:03;101225.78;;;26.98;28.97
13612;BME280;6877;51.436;6.774;2023-06-26T12:17:37;101224.00;;;27.21;27.84
13612;BME280;6877;51.436;6.774;2023-06-26T12:20:19;101230.50;;;27.51;27.55
13612;BME280;6877;51.436;6.774;2023-06-26T12:22:48;101219.66;;;27.41;28.13
13612;BME280;6877;51.436;6.774;2023-06-26T12:25:23;101225.09;;;26.96;29.49
13612;BME280;6877;51.436;6.774;2023-06-26T12:27:54;101232.75;;;26.56;30.22
13612;BME280;6877;51.436;6.774;2023-06-26T12:30:26;101245.81;;;26.72;30.64
13612;BME280;6877;51.436;6.774;2023-06-26T12:32:57;101242.63;;;26.67;31.10
13612;BME280;6877;51.436;6.774;2023-06-26T12:35:28;101253.03;;;26.94;31.33
13612;BME280;6877;51.436;6.774;2023-06-26T12:37:55;101256.34;;;27.20;30.26
13612;BME280;6877;51.436;6.774;2023-06-26T12:40:21;101263.44;;;27.21;30.14
13612;BME280;6877;51.436;6.774;2023-06-26T12:42:54;101258.78;;;26.89;30.78
13612;BME280;6877;51.436;6.774;2023-06-26T12:45:21;101260.97;;;26.38;31.25
13612;BME280;6877;51.436;6.774;2023-06-26T12:47:53;101257.06;;;25.95;31.23
13612;BME280;6877;51.436;6.774;2023-06-26T12:50:20;101251.13;;;26.03;31.26
13612;BME280;6877;51.436;6.774;2023-06-26T12:52:51;101266.44;;;26.25;31.07
13612;BME280;6877;51.436;6.774;2023-06-26T12:55:22;101261.31;;;25.74;30.78
13612;BME280;6877;51.436;6.774;2023-06-26T12:57:54;101260.75;;;25.57;30.76
13612;BME280;6877;51.436;6.774;2023-06-26T13:00:26;101247.69;;;25.53;31.02
13612;BME280;6877;51.436;6.774;2023-06-26T13:02:52;101257.31;;;25.55;30.96
13612;BME280;6877;51.436;6.774;2023-06-26T13:05:19;101262.59;;;25.57;30.93
13612;BME280;6877;51.436;6.774;2023-06-26T13:07:45;101263.13;;;25.86;30.54
13612;BME280;6877;51.436;6.774;2023-06-26T13:10:17;101262.00;;;26.12;30.27
13612;BME280;6877;51.436;6.774;2023-06-26T13:12:48;101262.31;;;26.32;29.79
13612;BME280;6877;51.436;6.774;2023-06-26T13:15:14;101267.72;;;26.43;29.76
13612;BME280;6877;51.436;6.774;2023-06-26T13:17:46;101263.66;;;26.26;29.64
13612;BME280;6877;51.436;6.774;2023-06-26T13:20:12;101253.06;;;26.47;29.66
13612;BME280;6877;51.436;6.774;2023-06-26T13:22:45;101250.94;;;26.64;30.40
13612;BME280;6877;51.436;6.774;2023-06-26T13:25:12;101267.50;;;26.57;31.11
13612;BME280;6877;51.436;6.774;2023-06-26T13:27:39;101271.06;;;26.58;30.31
13612;BME280;6877;51.436;6.774;2023-06-26T13:30:06;101266.56;;;26.92;29.48